Terminal Aerodrome Forecast
Issued by NWS Louisville, KY

Home | Current Version | Previous Version | Text Only | Print | Product List | Glossary On
Versions: 1 2 3 4 5 6 7 8 9 10 11 12 13 14 15 16 17 18 19 20 21
798
FTUS43 KLMK 161733
TAFBWG
TAF
KBWG 161733Z 1618/1718 34011KT 5SM -SHRA BR BKN015
     FM162200 35009KT P6SM BKN025
     FM170100 01006KT P6SM BKN045
     FM170300 02005KT P6SM SCT060
     FM171400 08004KT 5SM -RA OVC025
     FM171500 08004KT 3SM -RA OVC010=

USA.gov is the U.S. government's official web portal to all federal, state and local government web resources and services.